Estación Meteorológica Peña el Pijo (Robertgarden) [ 07/19/24 13:43:45 CEST ]

Fecha Hora Presion(HPa) Temp (°C) Humedad % Rocio (°C) Viento ( m/s) Direccion Lluvia 1Hora(mm) Lluvia 24H(mm) LLuvia Total(mm)
2013-Jul-12 01:01:18 1011.000 15.9 63 8.9         208.23
2013-Jul-12 02:01:15 1011.300 14.8 67 8.7         208.23
2013-Jul-12 03:01:42 1011.000 13.6 71 8.4         208.23
2013-Jul-12 04:01:41 1011.000 12.8 74 8.3         208.23
2013-Jul-12 05:04:14 1010.900 12.0 76 7.9         208.23
2013-Jul-12 06:01:13 1011.000 11.1 78 7.4         208.23
2013-Jul-12 07:01:14 1011.400 10.5 80 7.2         208.23
2013-Jul-12 08:01:16 1011.700 12.8 81 9.6         208.23
2013-Jul-12 09:01:14 1011.700 17.2 68 11.2         208.23
2013-Jul-12 10:01:15 1011.700 21.2 57 12.3         208.23
2013-Jul-12 11:01:12 1011.800 25.9 43 12.3         208.23
2013-Jul-12 12:01:18 1011.800 29.1 35 12.0         208.23
2013-Jul-12 13:01:14 1011.500 31.3 30 11.7         208.23
2013-Jul-12 14:01:12 1011.300 32.8 26 10.6 0.7 NNE     208.23
2013-Jul-12 15:01:14 1011.000 34.6 16 4.5         208.23
2013-Jul-12 16:01:13 1010.700 37.3 12 2.6         208.23
2013-Jul-12 17:01:16 1010.600 34.9 14 2.7         208.23
2013-Jul-12 18:01:15 1010.500 31.6 20 6.0 1.1 W     208.23
2013-Jul-12 19:01:14 1010.600 30.4 22 6.2         208.23
2013-Jul-12 20:01:19 1011.000 26.6 37 10.7         208.23
2013-Jul-12 21:01:19 1011.500 25.6 38 10.2         208.23
2013-Jul-12 22:01:18 1012.000 23.4 48 11.7         208.23
2013-Jul-12 23:01:14 1013.700 24.9 35 8.3         208.23

Temperatura Máxima:37°    Temperatura Mínima:10°
Presión Máxima:1013.700 Hpa    Presión Mínima:1010.500 Hpa


Volver